createdAt,value
2023-04-29T00:02:18.174Z,100364.75
2023-04-29T00:05:20.672Z,100352.75
2023-04-29T00:08:23.124Z,100355.38
2023-04-29T00:11:25.580Z,100350.16
2023-04-29T00:14:27.955Z,100344.13
2023-04-29T00:17:30.356Z,100343.50
2023-04-29T00:20:32.916Z,100327.91
2023-04-29T00:23:35.411Z,100333.94
2023-04-29T00:26:37.758Z,100307.31
2023-04-29T00:29:40.156Z,100339.53
2023-04-29T00:32:43.912Z,100320.09
2023-04-29T00:35:47.316Z,100320.13
2023-04-29T00:38:49.645Z,100327.13
2023-04-29T00:41:52.365Z,100325.94
2023-04-29T00:44:54.686Z,100329.75
2023-04-29T00:47:57.449Z,100308.16
2023-04-29T00:50:59.834Z,100329.16
2023-04-29T00:54:02.424Z,100334.44
2023-04-29T00:57:06.763Z,100320.41
2023-04-29T01:00:10.283Z,100327.41
2023-04-29T01:03:13.383Z,100319.59
2023-04-29T01:06:21.094Z,100315.75
2023-04-29T01:09:43.896Z,100314.34
2023-04-29T01:12:53.737Z,100319.38
2023-04-29T01:16:04.473Z,100319.91
2023-04-29T01:19:31.652Z,100317.16
2023-04-29T01:22:34.040Z,100324.00
2023-04-29T01:25:36.413Z,100331.38
2023-04-29T01:28:55.133Z,100317.19
2023-04-29T01:32:09.225Z,100286.94
2023-04-29T01:35:23.342Z,100318.13
2023-04-29T01:38:58.373Z,100314.13
2023-04-29T01:42:25.326Z,100320.34
2023-04-29T01:45:29.200Z,100290.22
2023-04-29T01:48:31.652Z,100314.56
2023-04-29T01:51:34.696Z,100316.78
2023-04-29T01:54:38.345Z,100309.97
2023-04-29T01:57:41.090Z,100313.75
2023-04-29T02:01:03.758Z,100317.41
2023-04-29T02:04:08.663Z,100325.63
2023-04-29T02:07:12.249Z,100330.84
2023-04-29T02:10:14.773Z,100322.59
2023-04-29T02:13:19.298Z,100271.63
2023-04-29T02:16:21.882Z,100309.19
2023-04-29T02:19:36.832Z,100314.84
2023-04-29T02:22:39.944Z,100319.44
2023-04-29T02:25:42.341Z,100318.06
2023-04-29T02:28:44.678Z,100317.44
2023-04-29T02:31:47.311Z,100320.28
2023-04-29T02:34:49.953Z,100308.28
2023-04-29T02:37:52.471Z,100312.47
2023-04-29T02:40:54.785Z,100314.06
2023-04-29T02:43:57.418Z,100317.66
2023-04-29T02:46:59.905Z,100318.47
2023-04-29T02:50:02.320Z,100314.28
2023-04-29T02:53:06.001Z,100309.09
2023-04-29T02:56:08.362Z,100309.88
2023-04-29T02:59:10.982Z,100314.88
2023-04-29T03:02:13.740Z,100322.50
2023-04-29T03:05:17.824Z,100318.28
2023-04-29T03:08:20.201Z,100316.13
2023-04-29T03:11:24.888Z,100310.91
2023-04-29T03:14:27.742Z,100311.09
2023-04-29T03:17:30.129Z,100314.13
2023-04-29T03:20:32.863Z,100309.28
2023-04-29T03:23:39.499Z,100299.09
2023-04-29T03:26:43.264Z,100307.50
2023-04-29T03:29:45.700Z,100301.50
2023-04-29T03:32:48.517Z,100313.28
2023-04-29T03:35:50.952Z,100309.72
2023-04-29T03:38:53.270Z,100320.53
2023-04-29T03:41:55.804Z,100305.50
2023-04-29T03:44:58.448Z,100326.31
2023-04-29T03:48:01.273Z,100323.91
2023-04-29T03:51:04.323Z,100323.31
2023-04-29T03:54:06.677Z,100299.31
2023-04-29T03:57:09.055Z,100336.13
2023-04-29T04:00:11.951Z,100341.13
2023-04-29T04:03:22.968Z,100347.94
2023-04-29T04:06:26.253Z,100335.31
2023-04-29T04:09:28.808Z,100336.28
2023-04-29T04:12:31.455Z,100339.88
2023-04-29T04:15:34.035Z,100355.06
2023-04-29T04:18:39.397Z,100353.47
2023-04-29T04:21:42.475Z,100368.06
2023-04-29T04:24:46.480Z,100378.25
2023-04-29T04:27:49.037Z,100374.66
2023-04-29T04:31:03.969Z,100382.00
2023-04-29T04:34:06.405Z,100376.81
2023-04-29T04:37:08.852Z,100376.78
2023-04-29T04:40:13.875Z,100382.19
2023-04-29T04:43:36.151Z,100382.03
2023-04-29T04:46:39.773Z,100385.84
2023-04-29T04:49:50.541Z,100371.25
2023-04-29T04:52:57.358Z,100356.50
2023-04-29T04:56:25.530Z,100340.06
2023-04-29T04:59:27.914Z,100352.69
2023-04-29T05:02:30.388Z,100349.28
2023-04-29T05:05:33.655Z,100345.09
2023-04-29T05:08:36.380Z,100343.72
2023-04-29T05:11:40.355Z,100337.91
2023-04-29T05:14:46.642Z,100347.16
2023-04-29T05:17:49.505Z,100326.13
2023-04-29T05:20:51.990Z,100340.13
2023-04-29T05:23:54.389Z,100338.13
2023-04-29T05:26:57.400Z,100349.94
2023-04-29T05:29:59.784Z,100367.94
2023-04-29T05:33:02.255Z,100362.53
2023-04-29T05:36:04.952Z,100353.13
2023-04-29T05:39:07.761Z,100356.34
2023-04-29T05:42:10.187Z,100352.91
2023-04-29T05:45:17.195Z,100353.72
2023-04-29T05:48:19.538Z,100362.91
2023-04-29T05:51:21.965Z,100334.69
2023-04-29T05:54:24.847Z,100364.31
2023-04-29T05:57:27.307Z,100357.50
2023-04-29T06:00:30.276Z,100365.69
2023-04-29T06:03:38.549Z,100363.50
2023-04-29T06:07:00.456Z,100360.25
2023-04-29T06:10:20.389Z,100352.44
2023-04-29T06:13:22.752Z,100360.63
2023-04-29T06:16:25.595Z,100354.97
2023-04-29T06:19:29.617Z,100361.94
2023-04-29T06:22:32.014Z,100362.94
2023-04-29T06:25:34.979Z,100342.91
2023-04-29T06:28:40.531Z,100363.53
2023-04-29T06:31:43.669Z,100368.09
2023-04-29T06:34:46.444Z,100363.25
2023-04-29T06:38:00.959Z,100358.63
2023-04-29T06:41:09.342Z,100362.75
2023-04-29T06:44:30.081Z,100374.53
2023-04-29T06:47:55.759Z,100357.69
2023-04-29T06:51:12.991Z,100350.25
2023-04-29T06:54:15.773Z,100362.97
2023-04-29T06:57:18.465Z,100359.41
2023-04-29T07:00:22.909Z,100357.56
2023-04-29T07:03:25.593Z,100362.19
2023-04-29T07:06:28.034Z,100362.28
2023-04-29T07:09:30.422Z,100353.50
2023-04-29T07:12:32.799Z,100352.94
2023-04-29T07:15:35.649Z,100351.84
2023-04-29T07:18:37.993Z,100347.91
2023-04-29T07:21:40.321Z,100344.34
2023-04-29T07:24:42.748Z,100295.63
2023-04-29T07:27:45.131Z,100335.69
2023-04-29T07:30:47.543Z,100329.75
2023-04-29T07:33:50.045Z,100329.28
2023-04-29T07:36:52.564Z,100335.22
2023-04-29T07:39:54.928Z,100338.06
2023-04-29T07:42:58.326Z,100344.97
2023-04-29T07:46:00.697Z,100348.31
2023-04-29T07:49:03.072Z,100354.66
2023-04-29T07:52:06.202Z,100361.53
2023-04-29T07:55:09.024Z,100360.47
2023-04-29T07:58:11.417Z,100357.34
2023-04-29T08:01:13.885Z,100359.69
2023-04-29T08:04:16.534Z,100360.34
2023-04-29T08:07:25.264Z,100364.63
2023-04-29T08:10:27.671Z,100358.22
2023-04-29T08:13:30.092Z,100352.66
2023-04-29T08:16:32.461Z,100353.09
2023-04-29T08:19:34.809Z,100350.38
2023-04-29T08:22:37.205Z,100357.53
2023-04-29T08:25:42.998Z,100364.16
2023-04-29T08:28:45.450Z,100367.25
2023-04-29T08:31:47.889Z,100367.38
2023-04-29T08:34:50.357Z,100370.22
2023-04-29T08:37:53.551Z,100367.00
2023-04-29T08:40:56.513Z,100354.53
2023-04-29T08:44:00.042Z,100365.84
2023-04-29T08:47:03.162Z,100371.88
2023-04-29T08:50:06.210Z,100360.75
2023-04-29T08:53:12.276Z,100374.81
2023-04-29T08:56:23.335Z,100375.50
2023-04-29T08:59:25.648Z,100376.94
2023-04-29T09:02:28.087Z,100383.31
2023-04-29T09:05:30.537Z,100377.81
2023-04-29T09:08:32.910Z,100380.81
2023-04-29T09:11:35.774Z,100375.38
2023-04-29T09:14:38.173Z,100360.44
2023-04-29T09:17:47.948Z,100345.13
2023-04-29T09:20:50.403Z,100367.03
2023-04-29T09:23:54.250Z,100344.59
2023-04-29T09:26:56.737Z,100367.78
2023-04-29T09:30:02.298Z,100355.03
2023-04-29T09:33:08.636Z,100363.00
2023-04-29T09:36:11.124Z,100335.13
2023-04-29T09:39:14.282Z,100365.25
2023-04-29T09:42:16.625Z,100362.50
2023-04-29T09:45:38.321Z,100351.13
2023-04-29T09:48:40.622Z,100351.28
2023-04-29T09:52:02.437Z,100362.22
2023-04-29T09:55:05.444Z,100360.63
2023-04-29T09:58:07.780Z,100354.16
2023-04-29T10:01:10.505Z,100347.25
2023-04-29T10:04:12.914Z,100351.09
2023-04-29T10:07:17.040Z,100349.78
2023-04-29T10:10:20.044Z,100334.34
2023-04-29T10:13:23.052Z,100342.13
2023-04-29T10:16:30.410Z,100335.56
2023-04-29T10:19:35.681Z,100343.47
2023-04-29T10:22:48.062Z,100336.72
2023-04-29T10:25:50.412Z,100319.06
2023-04-29T10:28:52.877Z,100325.34
2023-04-29T10:31:55.550Z,100317.50
2023-04-29T10:34:58.551Z,100307.97
2023-04-29T10:38:00.909Z,100302.53
2023-04-29T10:41:04.648Z,100291.94
2023-04-29T10:44:06.982Z,100304.19
2023-04-29T10:47:21.576Z,100289.47
2023-04-29T10:50:23.997Z,100291.53
2023-04-29T10:53:26.303Z,100284.38
2023-04-29T10:56:38.474Z,100293.03
2023-04-29T10:59:40.749Z,100292.81
2023-04-29T11:02:43.167Z,100286.97
2023-04-29T11:05:45.638Z,100283.69
2023-04-29T11:08:47.995Z,100273.25
2023-04-29T11:11:58.374Z,100284.16
2023-04-29T11:15:03.986Z,100281.91
2023-04-29T11:18:06.416Z,100273.41
2023-04-29T11:21:08.800Z,100275.88
2023-04-29T11:24:12.754Z,100266.78
2023-04-29T11:27:15.805Z,100256.72
2023-04-29T11:30:18.573Z,100261.72
2023-04-29T11:33:20.986Z,100254.31
2023-04-29T11:36:23.395Z,100247.16
2023-04-29T11:39:26.746Z,100251.69
2023-04-29T11:42:29.191Z,100247.50
2023-04-29T11:45:31.573Z,100246.47
2023-04-29T11:48:33.986Z,100244.84
2023-04-29T11:51:36.532Z,100254.72
2023-04-29T11:54:38.868Z,100246.84
2023-04-29T11:57:41.877Z,100249.16
2023-04-29T12:00:45.271Z,100237.16
2023-04-29T12:03:49.161Z,100245.81
2023-04-29T12:06:52.696Z,100250.28
2023-04-29T12:09:55.304Z,100238.06
2023-04-29T12:12:58.764Z,100249.94
2023-04-29T12:16:01.157Z,100241.34
2023-04-29T12:19:03.512Z,100241.13
2023-04-29T12:22:08.200Z,100224.16
2023-04-29T12:25:10.931Z,100229.66
2023-04-29T12:28:13.630Z,100222.84
2023-04-29T12:31:16.211Z,100224.66
2023-04-29T12:34:24.756Z,100205.22
2023-04-29T12:37:27.171Z,100221.63
2023-04-29T12:40:30.394Z,100214.38
2023-04-29T12:43:36.508Z,100212.59
2023-04-29T12:46:39.936Z,100208.03
2023-04-29T12:49:43.394Z,100207.97
2023-04-29T12:52:45.957Z,100204.84
2023-04-29T12:55:48.773Z,100198.34
2023-04-29T12:58:51.108Z,100199.56
2023-04-29T13:01:53.609Z,100193.78
2023-04-29T13:04:56.428Z,100194.16
2023-04-29T13:07:59.100Z,100198.03
2023-04-29T13:11:01.489Z,100198.44
2023-04-29T13:14:05.041Z,100194.50
2023-04-29T13:17:07.485Z,100191.47
2023-04-29T13:20:11.755Z,100160.78
2023-04-29T13:23:14.182Z,100183.59
2023-04-29T13:26:16.510Z,100177.84
2023-04-29T13:29:18.833Z,100182.41
2023-04-29T13:32:24.718Z,100181.53
2023-04-29T13:35:27.323Z,100172.31
2023-04-29T13:38:30.390Z,100169.66
2023-04-29T13:41:35.421Z,100155.69
2023-04-29T13:44:51.927Z,100156.50
2023-04-29T13:48:07.707Z,100158.16
2023-04-29T13:58:13.254Z,100153.50
2023-04-29T14:03:56.373Z,100152.88
2023-04-29T14:06:58.814Z,100147.75
2023-04-29T14:10:01.186Z,100145.25
2023-04-29T14:13:03.502Z,100149.72
2023-04-29T14:16:07.014Z,100147.63
2023-04-29T14:19:09.446Z,100148.94
2023-04-29T14:22:11.812Z,100146.78
2023-04-29T14:25:14.261Z,100150.00
2023-04-29T14:28:16.593Z,100144.06
2023-04-29T14:31:19.077Z,100142.94
2023-04-29T14:34:21.484Z,100144.38
2023-04-29T14:37:23.795Z,100143.53
2023-04-29T14:40:26.311Z,100140.25
2023-04-29T14:43:29.144Z,100144.34
2023-04-29T14:46:32.218Z,100138.31
2023-04-29T14:49:34.603Z,100136.88
2023-04-29T14:52:36.982Z,100139.91
2023-04-29T14:55:39.377Z,100135.47
2023-04-29T14:58:41.720Z,100141.00
2023-04-29T15:01:44.220Z,100141.31
2023-04-29T15:04:47.236Z,100139.88
2023-04-29T15:07:49.656Z,100143.84
2023-04-29T15:10:52.065Z,100139.91
2023-04-29T15:13:54.397Z,100149.81
2023-04-29T15:16:56.725Z,100154.84
2023-04-29T15:19:59.046Z,100151.41
2023-04-29T15:23:01.566Z,100149.66
2023-04-29T15:26:03.934Z,100150.53
2023-04-29T15:29:06.396Z,100145.25
2023-04-29T15:32:10.630Z,100143.66
2023-04-29T15:35:13.231Z,100146.28
2023-04-29T15:38:15.762Z,100149.22
2023-04-29T15:41:18.106Z,100143.66
2023-04-29T15:44:20.577Z,100149.72
2023-04-29T15:47:23.000Z,100155.25
2023-04-29T15:50:25.908Z,100152.63
2023-04-29T15:53:28.406Z,100154.19
2023-04-29T15:56:30.764Z,100159.47
2023-04-29T15:59:33.209Z,100151.84
2023-04-29T16:02:35.671Z,100148.91
2023-04-29T16:05:38.758Z,100158.41
2023-04-29T16:08:41.189Z,100153.41
2023-04-29T16:11:43.521Z,100160.84
2023-04-29T16:14:45.937Z,100149.47
2023-04-29T16:17:48.689Z,100157.63
2023-04-29T16:20:51.456Z,100151.84
2023-04-29T16:23:53.809Z,100153.66
2023-04-29T16:26:56.441Z,100155.00
2023-04-29T16:29:59.215Z,100149.19
2023-04-29T16:33:02.120Z,100152.91
2023-04-29T16:36:05.325Z,100154.72
2023-04-29T16:39:08.699Z,100150.50
2023-04-29T16:42:11.365Z,100144.69
2023-04-29T16:45:14.539Z,100145.91
2023-04-29T16:48:16.892Z,100141.91
2023-04-29T16:51:19.328Z,100121.06
2023-04-29T16:54:24.741Z,100147.44
2023-04-29T16:57:27.976Z,100159.31
2023-04-29T17:00:30.351Z,100153.75
2023-04-29T17:03:32.664Z,100159.47
2023-04-29T17:06:35.872Z,100168.78
2023-04-29T17:09:38.269Z,100156.72
2023-04-29T17:12:40.630Z,100174.91
2023-04-29T17:15:43.028Z,100172.28
2023-04-29T17:18:45.421Z,100165.63
2023-04-29T17:21:48.500Z,100162.97
2023-04-29T17:24:51.259Z,100169.25
2023-04-29T17:27:53.601Z,100162.25
2023-04-29T17:30:59.840Z,100175.66
2023-04-29T17:34:18.496Z,100166.91
2023-04-29T17:37:25.856Z,100160.00
2023-04-29T17:40:28.218Z,100178.84
2023-04-29T17:43:33.292Z,100188.03
2023-04-29T17:46:36.382Z,100183.50
2023-04-29T17:49:38.703Z,100185.78
2023-04-29T17:52:41.250Z,100189.81
2023-04-29T17:55:44.932Z,100184.50
2023-04-29T17:58:47.636Z,100191.28
2023-04-29T18:01:49.987Z,100188.59
2023-04-29T18:04:52.534Z,100191.97
2023-04-29T18:07:54.894Z,100178.56
2023-04-29T18:10:57.215Z,100193.41
2023-04-29T18:13:59.646Z,100176.81
2023-04-29T18:17:02.179Z,100189.22
2023-04-29T18:20:06.305Z,100182.56
2023-04-29T18:23:08.618Z,100198.69
2023-04-29T18:26:11.205Z,100196.63
2023-04-29T18:29:13.625Z,100199.06
2023-04-29T18:32:16.117Z,100180.25
2023-04-29T18:35:18.446Z,100218.81
2023-04-29T18:38:21.193Z,100215.69
2023-04-29T18:41:23.519Z,100220.66
2023-04-29T18:44:26.323Z,100225.91
2023-04-29T18:47:30.467Z,100227.78
2023-04-29T18:50:32.895Z,100233.72
2023-04-29T18:53:35.320Z,100227.69
2023-04-29T18:56:39.682Z,100233.00
2023-04-29T18:59:42.634Z,100233.81
2023-04-29T19:02:45.411Z,100226.75
2023-04-29T19:05:48.318Z,100224.19
2023-04-29T19:08:50.647Z,100220.31
2023-04-29T19:11:52.970Z,100232.25
2023-04-29T19:14:55.338Z,100229.66
2023-04-29T19:17:58.997Z,100235.72
2023-04-29T19:21:01.360Z,100246.03
2023-04-29T19:24:03.810Z,100248.34
2023-04-29T19:27:06.677Z,100253.78
2023-04-29T19:30:09.444Z,100248.91
2023-04-29T19:33:11.901Z,100255.94
2023-04-29T19:36:14.475Z,100258.00
2023-04-29T19:39:18.421Z,100250.13
2023-04-29T19:42:21.018Z,100248.97
2023-04-29T19:45:23.958Z,100247.75
2023-04-29T19:48:26.380Z,100243.97
2023-04-29T19:51:28.801Z,100250.25
2023-04-29T19:54:31.306Z,100249.94
2023-04-29T19:57:35.442Z,100245.16
2023-04-29T20:00:37.836Z,100243.56
2023-04-29T20:03:40.712Z,100263.84
2023-04-29T20:06:43.091Z,100259.19
2023-04-29T20:09:45.906Z,100267.22
2023-04-29T20:12:48.282Z,100260.56
2023-04-29T20:15:50.930Z,100254.75
2023-04-29T20:18:53.242Z,100260.75
2023-04-29T20:21:55.627Z,100264.13
2023-04-29T20:24:57.984Z,100265.69
2023-04-29T20:28:00.430Z,100270.78
2023-04-29T20:31:02.786Z,100265.94
2023-04-29T20:34:05.724Z,100264.78
2023-04-29T20:37:08.086Z,100270.88
2023-04-29T20:40:10.709Z,100270.38
2023-04-29T20:43:13.065Z,100268.88
2023-04-29T20:46:15.982Z,100261.66
2023-04-29T20:49:18.693Z,100269.66
2023-04-29T20:52:21.533Z,100262.78
2023-04-29T20:55:23.953Z,100259.34
2023-04-29T20:58:26.270Z,100274.16
2023-04-29T21:01:28.916Z,100278.16
2023-04-29T21:04:31.325Z,100276.28
2023-04-29T21:07:33.712Z,100266.13
2023-04-29T21:10:36.214Z,100270.19
2023-04-29T21:13:38.597Z,100278.22
2023-04-29T21:16:41.190Z,100275.81
2023-04-29T21:19:43.489Z,100286.72
2023-04-29T21:22:45.961Z,100277.28
2023-04-29T21:25:48.635Z,100278.81
2023-04-29T21:28:51.287Z,100281.22
2023-04-29T21:31:53.726Z,100274.06
2023-04-29T21:34:56.180Z,100269.47
2023-04-29T21:37:58.600Z,100275.97
2023-04-29T21:41:00.981Z,100288.81
2023-04-29T21:44:03.394Z,100276.41
2023-04-29T21:47:05.752Z,100290.72
2023-04-29T21:50:09.208Z,100294.75
2023-04-29T21:53:13.792Z,100290.34
2023-04-29T21:56:17.676Z,100295.41
2023-04-29T21:59:20.006Z,100294.91
2023-04-29T22:02:23.192Z,100285.25
2023-04-29T22:05:25.573Z,100303.44
2023-04-29T22:08:27.973Z,100311.22
2023-04-29T22:11:30.350Z,100294.69
2023-04-29T22:14:32.766Z,100263.97
2023-04-29T22:17:35.098Z,100305.97
2023-04-29T22:20:37.539Z,100298.38
2023-04-29T22:23:39.872Z,100307.41
2023-04-29T22:26:42.269Z,100300.00
2023-04-29T22:29:44.639Z,100290.47
2023-04-29T22:32:47.091Z,100308.13
2023-04-29T22:35:49.506Z,100300.38
2023-04-29T22:38:51.842Z,100297.84
2023-04-29T22:41:54.197Z,100300.63
2023-04-29T22:44:56.540Z,100305.28
2023-04-29T22:47:58.960Z,100309.25
2023-04-29T22:51:02.811Z,100302.44
2023-04-29T22:54:05.220Z,100322.69
2023-04-29T22:57:07.723Z,100310.91
2023-04-29T23:00:11.205Z,100301.31
2023-04-29T23:03:13.608Z,100306.31
2023-04-29T23:06:16.472Z,100315.28
2023-04-29T23:09:19.097Z,100312.88
2023-04-29T23:12:21.483Z,100315.91
2023-04-29T23:15:23.835Z,100309.09
2023-04-29T23:18:26.173Z,100315.91
2023-04-29T23:21:28.535Z,100318.13
2023-04-29T23:24:30.858Z,100317.19
2023-04-29T23:27:33.164Z,100324.75
2023-04-29T23:30:35.680Z,100322.19
2023-04-29T23:33:38.021Z,100312.63
2023-04-29T23:36:40.646Z,100317.00
2023-04-29T23:39:43.045Z,100313.22
2023-04-29T23:42:45.366Z,100326.44
2023-04-29T23:45:47.796Z,100322.28
2023-04-29T23:48:50.292Z,100328.06
2023-04-29T23:51:52.618Z,100326.28
2023-04-29T23:54:54.986Z,100320.44
2023-04-29T23:57:57.674Z,100316.03
